sensor_id;sensor_type;location;lat;lon;timestamp;P1;durP1;ratioP1;P2;durP2;ratioP2
10896;SDS011;5501;51.176;6.470;2022-09-09T00:02:22;2.45;;;1.40;;
10896;SDS011;5501;51.176;6.470;2022-09-09T00:07:46;2.35;;;2.00;;
10896;SDS011;5501;51.176;6.470;2022-09-09T00:13:08;3.38;;;3.13;;
10896;SDS011;5501;51.176;6.470;2022-09-09T00:23:55;3.47;;;3.17;;
10896;SDS011;5501;51.176;6.470;2022-09-09T00:34:15;2.50;;;2.30;;
10896;SDS011;5501;51.176;6.470;2022-09-09T00:44:50;1.55;;;1.40;;
10896;SDS011;5501;51.176;6.470;2022-09-09T00:50:06;1.23;;;1.20;;
10896;SDS011;5501;51.176;6.470;2022-09-09T00:55:39;3.58;;;1.23;;
10896;SDS011;5501;51.176;6.470;2022-09-09T01:00:49;2.15;;;1.30;;
10896;SDS011;5501;51.176;6.470;2022-09-09T01:06:00;1.35;;;1.17;;
10896;SDS011;5501;51.176;6.470;2022-09-09T01:11:04;2.08;;;1.20;;
10896;SDS011;5501;51.176;6.470;2022-09-09T01:16:07;1.65;;;1.20;;
10896;SDS011;5501;51.176;6.470;2022-09-09T01:26:39;2.15;;;1.10;;
10896;SDS011;5501;51.176;6.470;2022-09-09T01:31:53;2.28;;;1.30;;
10896;SDS011;5501;51.176;6.470;2022-09-09T01:37:05;3.17;;;1.20;;
10896;SDS011;5501;51.176;6.470;2022-09-09T01:42:11;3.00;;;1.23;;
10896;SDS011;5501;51.176;6.470;2022-09-09T01:47:16;3.30;;;1.50;;
10896;SDS011;5501;51.176;6.470;2022-09-09T01:52:55;3.35;;;1.17;;
10896;SDS011;5501;51.176;6.470;2022-09-09T02:08:48;2.65;;;1.30;;
10896;SDS011;5501;51.176;6.470;2022-09-09T02:13:52;4.35;;;1.17;;
10896;SDS011;5501;51.176;6.470;2022-09-09T02:19:02;1.10;;;0.90;;
10896;SDS011;5501;51.176;6.470;2022-09-09T02:24:20;6.20;;;1.10;;
10896;SDS011;5501;51.176;6.470;2022-09-09T02:29:34;1.90;;;0.93;;
10896;SDS011;5501;51.176;6.470;2022-09-09T02:34:48;2.70;;;1.23;;
10896;SDS011;5501;51.176;6.470;2022-09-09T02:39:55;2.15;;;1.00;;
10896;SDS011;5501;51.176;6.470;2022-09-09T02:44:58;1.08;;;0.80;;
10896;SDS011;5501;51.176;6.470;2022-09-09T03:00:47;4.03;;;1.20;;
10896;SDS011;5501;51.176;6.470;2022-09-09T03:05:51;3.63;;;0.90;;
10896;SDS011;5501;51.176;6.470;2022-09-09T03:10:54;1.10;;;0.80;;
10896;SDS011;5501;51.176;6.470;2022-09-09T03:15:58;1.80;;;1.02;;
10896;SDS011;5501;51.176;6.470;2022-09-09T03:21:03;2.17;;;1.17;;
10896;SDS011;5501;51.176;6.470;2022-09-09T03:26:05;2.70;;;1.00;;
10896;SDS011;5501;51.176;6.470;2022-09-09T03:31:14;1.50;;;1.07;;
10896;SDS011;5501;51.176;6.470;2022-09-09T03:36:16;3.45;;;1.00;;
10896;SDS011;5501;51.176;6.470;2022-09-09T03:41:18;4.63;;;1.00;;
10896;SDS011;5501;51.176;6.470;2022-09-09T03:46:21;1.88;;;1.10;;
10896;SDS011;5501;51.176;6.470;2022-09-09T03:51:25;2.25;;;1.08;;
10896;SDS011;5501;51.176;6.470;2022-09-09T03:56:27;2.35;;;1.25;;
10896;SDS011;5501;51.176;6.470;2022-09-09T04:01:30;3.97;;;1.10;;
10896;SDS011;5501;51.176;6.470;2022-09-09T04:06:32;4.30;;;1.15;;
10896;SDS011;5501;51.176;6.470;2022-09-09T04:11:33;2.75;;;1.20;;
10896;SDS011;5501;51.176;6.470;2022-09-09T04:16:35;2.03;;;0.98;;
10896;SDS011;5501;51.176;6.470;2022-09-09T04:21:41;1.88;;;0.90;;
10896;SDS011;5501;51.176;6.470;2022-09-09T04:26:43;3.17;;;1.25;;
10896;SDS011;5501;51.176;6.470;2022-09-09T04:31:45;3.17;;;1.40;;
10896;SDS011;5501;51.176;6.470;2022-09-09T04:36:47;2.65;;;1.08;;
10896;SDS011;5501;51.176;6.470;2022-09-09T04:41:48;5.15;;;1.40;;
10896;SDS011;5501;51.176;6.470;2022-09-09T04:46:51;4.05;;;1.45;;
10896;SDS011;5501;51.176;6.470;2022-09-09T04:51:53;3.10;;;1.20;;
10896;SDS011;5501;51.176;6.470;2022-09-09T04:56:56;5.28;;;1.20;;
10896;SDS011;5501;51.176;6.470;2022-09-09T05:01:58;4.15;;;1.38;;
10896;SDS011;5501;51.176;6.470;2022-09-09T05:07:03;1.73;;;1.00;;
10896;SDS011;5501;51.176;6.470;2022-09-09T05:12:04;4.00;;;1.40;;
10896;SDS011;5501;51.176;6.470;2022-09-09T05:17:09;3.13;;;1.10;;
10896;SDS011;5501;51.176;6.470;2022-09-09T05:22:13;3.67;;;1.30;;
10896;SDS011;5501;51.176;6.470;2022-09-09T05:27:21;5.95;;;1.55;;
10896;SDS011;5501;51.176;6.470;2022-09-09T05:32:24;5.45;;;2.35;;
10896;SDS011;5501;51.176;6.470;2022-09-09T05:37:26;2.88;;;1.30;;
10896;SDS011;5501;51.176;6.470;2022-09-09T05:42:31;1.73;;;1.15;;
10896;SDS011;5501;51.176;6.470;2022-09-09T05:47:34;3.33;;;1.23;;
10896;SDS011;5501;51.176;6.470;2022-09-09T05:52:40;1.92;;;1.10;;
10896;SDS011;5501;51.176;6.470;2022-09-09T05:57:47;6.40;;;1.45;;
10896;SDS011;5501;51.176;6.470;2022-09-09T06:02:50;3.35;;;1.10;;
10896;SDS011;5501;51.176;6.470;2022-09-09T06:07:54;3.15;;;1.17;;
10896;SDS011;5501;51.176;6.470;2022-09-09T06:12:58;1.42;;;1.10;;
10896;SDS011;5501;51.176;6.470;2022-09-09T06:17:59;3.60;;;1.33;;
10896;SDS011;5501;51.176;6.470;2022-09-09T06:23:01;4.63;;;1.35;;
10896;SDS011;5501;51.176;6.470;2022-09-09T06:28:05;3.13;;;1.20;;
10896;SDS011;5501;51.176;6.470;2022-09-09T06:33:07;4.72;;;1.40;;
10896;SDS011;5501;51.176;6.470;2022-09-09T06:38:11;2.38;;;0.98;;
10896;SDS011;5501;51.176;6.470;2022-09-09T06:43:12;4.05;;;1.05;;
10896;SDS011;5501;51.176;6.470;2022-09-09T06:48:21;4.10;;;1.13;;
10896;SDS011;5501;51.176;6.470;2022-09-09T06:53:23;2.22;;;0.75;;
10896;SDS011;5501;51.176;6.470;2022-09-09T06:58:26;1.95;;;0.85;;
10896;SDS011;5501;51.176;6.470;2022-09-09T07:03:29;2.40;;;1.13;;
10896;SDS011;5501;51.176;6.470;2022-09-09T07:08:31;2.80;;;1.10;;
10896;SDS011;5501;51.176;6.470;2022-09-09T07:13:34;5.32;;;0.90;;
10896;SDS011;5501;51.176;6.470;2022-09-09T07:18:36;4.93;;;1.25;;
10896;SDS011;5501;51.176;6.470;2022-09-09T07:23:38;2.88;;;0.85;;
10896;SDS011;5501;51.176;6.470;2022-09-09T07:28:41;3.72;;;0.90;;
10896;SDS011;5501;51.176;6.470;2022-09-09T07:33:43;4.75;;;1.05;;
10896;SDS011;5501;51.176;6.470;2022-09-09T07:38:47;3.90;;;1.00;;
10896;SDS011;5501;51.176;6.470;2022-09-09T07:43:50;2.20;;;0.90;;
10896;SDS011;5501;51.176;6.470;2022-09-09T07:48:55;2.95;;;1.17;;
10896;SDS011;5501;51.176;6.470;2022-09-09T07:54:05;2.83;;;0.88;;
10896;SDS011;5501;51.176;6.470;2022-09-09T07:59:12;2.55;;;1.17;;
10896;SDS011;5501;51.176;6.470;2022-09-09T08:04:17;3.72;;;1.00;;
10896;SDS011;5501;51.176;6.470;2022-09-09T08:09:21;3.17;;;0.90;;
10896;SDS011;5501;51.176;6.470;2022-09-09T08:14:26;3.65;;;1.30;;
10896;SDS011;5501;51.176;6.470;2022-09-09T08:19:30;3.28;;;1.00;;
10896;SDS011;5501;51.176;6.470;2022-09-09T08:24:35;4.35;;;1.02;;
10896;SDS011;5501;51.176;6.470;2022-09-09T08:29:37;3.60;;;1.17;;
10896;SDS011;5501;51.176;6.470;2022-09-09T08:34:39;3.85;;;0.95;;
10896;SDS011;5501;51.176;6.470;2022-09-09T08:39:50;2.63;;;0.98;;
10896;SDS011;5501;51.176;6.470;2022-09-09T08:55:47;1.67;;;0.73;;
10896;SDS011;5501;51.176;6.470;2022-09-09T09:11:39;4.43;;;0.90;;
10896;SDS011;5501;51.176;6.470;2022-09-09T09:21:59;6.15;;;1.00;;
10896;SDS011;5501;51.176;6.470;2022-09-09T09:27:36;1.33;;;0.70;;
10896;SDS011;5501;51.176;6.470;2022-09-09T09:33:00;1.38;;;0.82;;
10896;SDS011;5501;51.176;6.470;2022-09-09T09:38:29;2.30;;;1.17;;
10896;SDS011;5501;51.176;6.470;2022-09-09T09:43:53;4.68;;;1.02;;
10896;SDS011;5501;51.176;6.470;2022-09-09T09:49:00;2.95;;;1.10;;
10896;SDS011;5501;51.176;6.470;2022-09-09T09:54:09;3.20;;;0.85;;
10896;SDS011;5501;51.176;6.470;2022-09-09T09:59:40;2.20;;;0.80;;
10896;SDS011;5501;51.176;6.470;2022-09-09T10:05:04;1.23;;;0.95;;
10896;SDS011;5501;51.176;6.470;2022-09-09T10:10:11;2.13;;;0.60;;
10896;SDS011;5501;51.176;6.470;2022-09-09T10:20:47;3.45;;;1.00;;
10896;SDS011;5501;51.176;6.470;2022-09-09T10:26:12;1.97;;;0.70;;
10896;SDS011;5501;51.176;6.470;2022-09-09T10:31:25;1.90;;;1.08;;
10896;SDS011;5501;51.176;6.470;2022-09-09T10:36:32;0.95;;;0.52;;
10896;SDS011;5501;51.176;6.470;2022-09-09T10:41:37;2.63;;;1.02;;
10896;SDS011;5501;51.176;6.470;2022-09-09T10:57:47;1.42;;;0.60;;
10896;SDS011;5501;51.176;6.470;2022-09-09T11:03:00;2.55;;;1.02;;
10896;SDS011;5501;51.176;6.470;2022-09-09T11:08:06;1.92;;;0.70;;
10896;SDS011;5501;51.176;6.470;2022-09-09T11:13:23;0.93;;;0.60;;
10896;SDS011;5501;51.176;6.470;2022-09-09T11:18:32;1.77;;;0.60;;
10896;SDS011;5501;51.176;6.470;2022-09-09T11:23:40;2.90;;;0.70;;
10896;SDS011;5501;51.176;6.470;2022-09-09T11:28:54;4.00;;;0.90;;
10896;SDS011;5501;51.176;6.470;2022-09-09T11:34:23;0.75;;;0.60;;
10896;SDS011;5501;51.176;6.470;2022-09-09T11:45:08;1.42;;;0.60;;
10896;SDS011;5501;51.176;6.470;2022-09-09T11:55:25;1.90;;;0.50;;
10896;SDS011;5501;51.176;6.470;2022-09-09T12:00:48;0.80;;;0.57;;
10896;SDS011;5501;51.176;6.470;2022-09-09T12:05:50;1.55;;;0.90;;
10896;SDS011;5501;51.176;6.470;2022-09-09T12:10:53;1.08;;;0.63;;
10896;SDS011;5501;51.176;6.470;2022-09-09T12:15:58;3.22;;;0.80;;
10896;SDS011;5501;51.176;6.470;2022-09-09T12:21:07;1.98;;;0.77;;
10896;SDS011;5501;51.176;6.470;2022-09-09T12:31:38;0.93;;;0.70;;
10896;SDS011;5501;51.176;6.470;2022-09-09T12:42:39;2.20;;;0.85;;
10896;SDS011;5501;51.176;6.470;2022-09-09T12:47:44;3.63;;;1.02;;
10896;SDS011;5501;51.176;6.470;2022-09-09T12:52:53;2.47;;;1.02;;
10896;SDS011;5501;51.176;6.470;2022-09-09T12:58:00;2.22;;;1.20;;
10896;SDS011;5501;51.176;6.470;2022-09-09T13:03:16;1.08;;;0.80;;
10896;SDS011;5501;51.176;6.470;2022-09-09T13:08:19;0.85;;;0.73;;
10896;SDS011;5501;51.176;6.470;2022-09-09T13:18:39;2.22;;;0.95;;
10896;SDS011;5501;51.176;6.470;2022-09-09T13:23:48;2.10;;;0.90;;
10896;SDS011;5501;51.176;6.470;2022-09-09T13:28:51;3.85;;;1.15;;
10896;SDS011;5501;51.176;6.470;2022-09-09T13:33:54;2.60;;;1.10;;
10896;SDS011;5501;51.176;6.470;2022-09-09T13:38:56;1.42;;;1.00;;
10896;SDS011;5501;51.176;6.470;2022-09-09T13:44:01;1.20;;;1.00;;
10896;SDS011;5501;51.176;6.470;2022-09-09T13:54:10;2.13;;;0.80;;
10896;SDS011;5501;51.176;6.470;2022-09-09T13:59:14;2.08;;;0.80;;
10896;SDS011;5501;51.176;6.470;2022-09-09T14:04:18;1.10;;;0.82;;
10896;SDS011;5501;51.176;6.470;2022-09-09T14:09:22;0.50;;;0.38;;
10896;SDS011;5501;51.176;6.470;2022-09-09T14:14:23;0.82;;;0.40;;
10896;SDS011;5501;51.176;6.470;2022-09-09T14:19:26;0.68;;;0.68;;
10896;SDS011;5501;51.176;6.470;2022-09-09T14:24:27;0.95;;;0.65;;
10896;SDS011;5501;51.176;6.470;2022-09-09T14:29:29;1.23;;;0.70;;
10896;SDS011;5501;51.176;6.470;2022-09-09T14:34:30;0.30;;;0.30;;
10896;SDS011;5501;51.176;6.470;2022-09-09T14:39:33;1.27;;;0.75;;
10896;SDS011;5501;51.176;6.470;2022-09-09T14:44:34;0.38;;;0.30;;
10896;SDS011;5501;51.176;6.470;2022-09-09T14:49:37;0.93;;;0.60;;
10896;SDS011;5501;51.176;6.470;2022-09-09T14:54:43;0.90;;;0.88;;
10896;SDS011;5501;51.176;6.470;2022-09-09T14:59:45;1.55;;;0.68;;
10896;SDS011;5501;51.176;6.470;2022-09-09T15:04:46;0.98;;;0.70;;
10896;SDS011;5501;51.176;6.470;2022-09-09T15:09:48;1.48;;;1.08;;
10896;SDS011;5501;51.176;6.470;2022-09-09T15:14:50;0.40;;;0.40;;
10896;SDS011;5501;51.176;6.470;2022-09-09T15:19:53;0.40;;;0.40;;
10896;SDS011;5501;51.176;6.470;2022-09-09T15:24:56;0.55;;;0.50;;
10896;SDS011;5501;51.176;6.470;2022-09-09T15:29:58;0.85;;;0.52;;
10896;SDS011;5501;51.176;6.470;2022-09-09T15:34:59;3.70;;;0.88;;
10896;SDS011;5501;51.176;6.470;2022-09-09T15:40:02;0.90;;;0.65;;
10896;SDS011;5501;51.176;6.470;2022-09-09T15:45:04;0.75;;;0.60;;
10896;SDS011;5501;51.176;6.470;2022-09-09T15:50:07;2.83;;;0.60;;
10896;SDS011;5501;51.176;6.470;2022-09-09T15:55:08;0.95;;;0.70;;
10896;SDS011;5501;51.176;6.470;2022-09-09T16:00:10;0.60;;;0.60;;
10896;SDS011;5501;51.176;6.470;2022-09-09T16:05:14;2.10;;;1.13;;
10896;SDS011;5501;51.176;6.470;2022-09-09T16:10:15;1.35;;;0.80;;
10896;SDS011;5501;51.176;6.470;2022-09-09T16:15:17;5.15;;;0.80;;
10896;SDS011;5501;51.176;6.470;2022-09-09T16:20:21;1.40;;;1.08;;
10896;SDS011;5501;51.176;6.470;2022-09-09T16:25:22;3.10;;;1.17;;
10896;SDS011;5501;51.176;6.470;2022-09-09T16:30:24;0.80;;;0.80;;
10896;SDS011;5501;51.176;6.470;2022-09-09T16:35:25;3.13;;;1.10;;
10896;SDS011;5501;51.176;6.470;2022-09-09T16:40:27;2.28;;;1.17;;
10896;SDS011;5501;51.176;6.470;2022-09-09T16:45:28;3.67;;;1.05;;
10896;SDS011;5501;51.176;6.470;2022-09-09T16:50:31;1.60;;;1.10;;
10896;SDS011;5501;51.176;6.470;2022-09-09T16:55:32;0.98;;;0.88;;
10896;SDS011;5501;51.176;6.470;2022-09-09T17:00:34;1.27;;;1.10;;
10896;SDS011;5501;51.176;6.470;2022-09-09T17:05:39;1.35;;;1.00;;
10896;SDS011;5501;51.176;6.470;2022-09-09T17:10:42;4.07;;;1.40;;
10896;SDS011;5501;51.176;6.470;2022-09-09T17:15:44;2.63;;;1.15;;
10896;SDS011;5501;51.176;6.470;2022-09-09T17:20:46;1.58;;;1.13;;
10896;SDS011;5501;51.176;6.470;2022-09-09T17:25:55;4.22;;;1.30;;
10896;SDS011;5501;51.176;6.470;2022-09-09T17:30:58;3.40;;;1.33;;
10896;SDS011;5501;51.176;6.470;2022-09-09T17:36:38;1.17;;;1.08;;
10896;SDS011;5501;51.176;6.470;2022-09-09T17:41:35;2.33;;;1.25;;
10896;SDS011;5501;51.176;6.470;2022-09-09T17:46:39;1.70;;;1.02;;
10896;SDS011;5501;51.176;6.470;2022-09-09T17:51:43;1.52;;;0.93;;
10896;SDS011;5501;51.176;6.470;2022-09-09T17:56:46;1.55;;;0.90;;
10896;SDS011;5501;51.176;6.470;2022-09-09T18:01:48;1.75;;;1.08;;
10896;SDS011;5501;51.176;6.470;2022-09-09T18:06:52;2.53;;;0.90;;
10896;SDS011;5501;51.176;6.470;2022-09-09T18:11:57;4.50;;;0.93;;
10896;SDS011;5501;51.176;6.470;2022-09-09T18:17:00;1.08;;;0.90;;
10896;SDS011;5501;51.176;6.470;2022-09-09T18:22:04;1.30;;;0.80;;
10896;SDS011;5501;51.176;6.470;2022-09-09T18:27:07;3.10;;;1.10;;
10896;SDS011;5501;51.176;6.470;2022-09-09T18:32:08;1.40;;;1.17;;
10896;SDS011;5501;51.176;6.470;2022-09-09T18:37:09;2.05;;;1.08;;
10896;SDS011;5501;51.176;6.470;2022-09-09T18:42:11;1.50;;;0.98;;
10896;SDS011;5501;51.176;6.470;2022-09-09T18:47:13;1.15;;;1.05;;
10896;SDS011;5501;51.176;6.470;2022-09-09T18:52:16;1.00;;;0.90;;
10896;SDS011;5501;51.176;6.470;2022-09-09T18:57:17;3.13;;;1.20;;
10896;SDS011;5501;51.176;6.470;2022-09-09T19:02:19;2.30;;;0.88;;
10896;SDS011;5501;51.176;6.470;2022-09-09T19:07:21;1.17;;;0.85;;
10896;SDS011;5501;51.176;6.470;2022-09-09T19:12:23;3.63;;;1.27;;
10896;SDS011;5501;51.176;6.470;2022-09-09T19:17:25;0.70;;;0.70;;
10896;SDS011;5501;51.176;6.470;2022-09-09T19:22:27;1.52;;;0.88;;
10896;SDS011;5501;51.176;6.470;2022-09-09T19:27:29;1.30;;;0.95;;
10896;SDS011;5501;51.176;6.470;2022-09-09T19:32:31;3.17;;;1.10;;
10896;SDS011;5501;51.176;6.470;2022-09-09T19:37:52;1.98;;;1.10;;
10896;SDS011;5501;51.176;6.470;2022-09-09T19:42:54;3.38;;;1.63;;
10896;SDS011;5501;51.176;6.470;2022-09-09T19:47:56;2.67;;;1.38;;
10896;SDS011;5501;51.176;6.470;2022-09-09T19:52:57;1.23;;;1.00;;
10896;SDS011;5501;51.176;6.470;2022-09-09T19:58:00;3.22;;;1.35;;
10896;SDS011;5501;51.176;6.470;2022-09-09T20:03:02;1.75;;;1.00;;
10896;SDS011;5501;51.176;6.470;2022-09-09T20:08:20;2.53;;;1.30;;
10896;SDS011;5501;51.176;6.470;2022-09-09T20:13:21;1.40;;;1.10;;
10896;SDS011;5501;51.176;6.470;2022-09-09T20:18:23;1.60;;;1.20;;
10896;SDS011;5501;51.176;6.470;2022-09-09T20:23:28;2.40;;;1.20;;
10896;SDS011;5501;51.176;6.470;2022-09-09T20:28:30;2.08;;;1.20;;
10896;SDS011;5501;51.176;6.470;2022-09-09T20:33:32;3.42;;;1.30;;
10896;SDS011;5501;51.176;6.470;2022-09-09T20:38:39;1.50;;;1.30;;
10896;SDS011;5501;51.176;6.470;2022-09-09T20:43:53;3.78;;;1.38;;
10896;SDS011;5501;51.176;6.470;2022-09-09T20:48:56;4.88;;;1.50;;
10896;SDS011;5501;51.176;6.470;2022-09-09T20:54:05;2.88;;;1.40;;
10896;SDS011;5501;51.176;6.470;2022-09-09T20:59:12;3.67;;;1.20;;
10896;SDS011;5501;51.176;6.470;2022-09-09T21:04:16;3.17;;;1.30;;
10896;SDS011;5501;51.176;6.470;2022-09-09T21:09:19;2.42;;;1.20;;
10896;SDS011;5501;51.176;6.470;2022-09-09T21:14:23;3.67;;;1.13;;
10896;SDS011;5501;51.176;6.470;2022-09-09T21:19:25;1.25;;;0.90;;
10896;SDS011;5501;51.176;6.470;2022-09-09T21:24:26;2.03;;;1.13;;
10896;SDS011;5501;51.176;6.470;2022-09-09T21:29:28;2.15;;;1.27;;
10896;SDS011;5501;51.176;6.470;2022-09-09T21:34:30;3.42;;;1.17;;
10896;SDS011;5501;51.176;6.470;2022-09-09T21:39:34;4.97;;;1.40;;
10896;SDS011;5501;51.176;6.470;2022-09-09T21:44:36;1.45;;;1.20;;
10896;SDS011;5501;51.176;6.470;2022-09-09T21:49:38;5.20;;;1.73;;
10896;SDS011;5501;51.176;6.470;2022-09-09T21:54:39;2.13;;;1.05;;
10896;SDS011;5501;51.176;6.470;2022-09-09T21:59:43;2.70;;;1.10;;
10896;SDS011;5501;51.176;6.470;2022-09-09T22:04:45;1.98;;;1.02;;
10896;SDS011;5501;51.176;6.470;2022-09-09T22:09:46;2.63;;;1.02;;
10896;SDS011;5501;51.176;6.470;2022-09-09T22:14:48;2.08;;;1.10;;
10896;SDS011;5501;51.176;6.470;2022-09-09T22:19:49;5.53;;;1.60;;
10896;SDS011;5501;51.176;6.470;2022-09-09T22:24:51;2.72;;;1.30;;
10896;SDS011;5501;51.176;6.470;2022-09-09T22:29:53;2.20;;;1.05;;
10896;SDS011;5501;51.176;6.470;2022-09-09T22:34:55;5.65;;;1.27;;
10896;SDS011;5501;51.176;6.470;2022-09-09T22:39:56;1.15;;;1.05;;
10896;SDS011;5501;51.176;6.470;2022-09-09T22:44:58;2.70;;;1.13;;
10896;SDS011;5501;51.176;6.470;2022-09-09T22:50:00;3.47;;;1.13;;
10896;SDS011;5501;51.176;6.470;2022-09-09T22:55:03;0.95;;;0.90;;
10896;SDS011;5501;51.176;6.470;2022-09-09T23:00:05;1.30;;;0.82;;
10896;SDS011;5501;51.176;6.470;2022-09-09T23:05:09;4.30;;;0.88;;
10896;SDS011;5501;51.176;6.470;2022-09-09T23:10:11;2.42;;;0.70;;
10896;SDS011;5501;51.176;6.470;2022-09-09T23:15:14;1.45;;;0.90;;
10896;SDS011;5501;51.176;6.470;2022-09-09T23:20:15;3.33;;;0.80;;
10896;SDS011;5501;51.176;6.470;2022-09-09T23:25:19;0.50;;;0.50;;
10896;SDS011;5501;51.176;6.470;2022-09-09T23:30:21;3.15;;;0.82;;
10896;SDS011;5501;51.176;6.470;2022-09-09T23:35:23;0.82;;;0.60;;
10896;SDS011;5501;51.176;6.470;2022-09-09T23:40:24;3.60;;;0.88;;
10896;SDS011;5501;51.176;6.470;2022-09-09T23:45:27;0.60;;;0.60;;
10896;SDS011;5501;51.176;6.470;2022-09-09T23:50:28;1.23;;;0.77;;
10896;SDS011;5501;51.176;6.470;2022-09-09T23:55:30;0.80;;;0.73;;
